createdAt,value
2022-11-16T00:00:14.096Z,20.95
2022-11-16T00:00:36.934Z,20.63
2022-11-16T00:01:01.050Z,21.17
2022-11-16T00:01:25.187Z,20.95
2022-11-16T00:01:48.094Z,20.45
2022-11-16T00:02:11.022Z,20.88
2022-11-16T00:02:34.492Z,20.73
2022-11-16T00:03:01.461Z,20.58
2022-11-16T00:03:24.330Z,20.95
2022-11-16T00:03:47.096Z,20.75
2022-11-16T00:04:09.869Z,20.92
2022-11-16T00:04:32.812Z,20.60
2022-11-16T00:04:55.590Z,20.40
2022-11-16T00:05:22.005Z,20.17
2022-11-16T00:05:47.214Z,21.73
2022-11-16T00:06:10.485Z,20.95
2022-11-16T00:06:35.870Z,20.80
2022-11-16T00:06:59.414Z,19.98
2022-11-16T00:07:22.256Z,20.70
2022-11-16T00:07:45.145Z,20.55
2022-11-16T00:08:07.963Z,21.15
2022-11-16T00:08:31.162Z,20.80
2022-11-16T00:09:15.217Z,20.00
2022-11-16T00:09:38.046Z,20.15
2022-11-16T00:10:00.896Z,21.10
2022-11-16T00:10:23.582Z,20.88
2022-11-16T00:10:46.351Z,20.70
2022-11-16T00:11:10.491Z,20.58
2022-11-16T00:11:33.304Z,19.77
2022-11-16T00:11:57.131Z,20.98
2022-11-16T00:12:19.965Z,20.70
2022-11-16T00:12:42.730Z,21.23
2022-11-16T00:13:05.531Z,20.25
2022-11-16T00:13:28.461Z,20.63
2022-11-16T00:13:51.211Z,20.02
2022-11-16T00:14:14.035Z,20.40
2022-11-16T00:14:36.888Z,20.10
2022-11-16T00:14:59.630Z,21.60
2022-11-16T00:15:22.396Z,20.73
2022-11-16T00:15:53.539Z,20.02
2022-11-16T00:16:17.370Z,20.77
2022-11-16T00:16:40.211Z,20.52
2022-11-16T00:17:03.339Z,21.38
2022-11-16T00:17:26.047Z,20.88
2022-11-16T00:17:48.785Z,20.63
2022-11-16T00:18:13.966Z,20.70
2022-11-16T00:18:36.673Z,20.90
2022-11-16T00:19:00.156Z,20.98
2022-11-16T00:19:23.112Z,21.70
2022-11-16T00:19:47.332Z,21.83
2022-11-16T00:20:11.726Z,21.13
2022-11-16T00:20:34.374Z,20.98
2022-11-16T00:20:57.133Z,21.75
2022-11-16T00:21:19.790Z,21.48
2022-11-16T00:21:42.572Z,21.33
2022-11-16T00:22:05.304Z,21.63
2022-11-16T00:22:28.251Z,21.65
2022-11-16T00:22:51.035Z,21.50
2022-11-16T00:23:13.754Z,20.98
2022-11-16T00:23:38.710Z,21.33
2022-11-16T00:24:01.431Z,22.27
2022-11-16T00:24:24.147Z,22.25
2022-11-16T00:24:46.977Z,21.88
2022-11-16T00:25:09.937Z,21.17
2022-11-16T00:25:34.879Z,20.90
2022-11-16T00:26:04.000Z,22.05
2022-11-16T00:26:26.716Z,21.88
2022-11-16T00:26:50.109Z,21.90
2022-11-16T00:27:12.936Z,21.92
2022-11-16T00:27:35.634Z,21.70
2022-11-16T00:27:58.375Z,21.77
2022-11-16T00:28:21.146Z,21.70
2022-11-16T00:28:43.905Z,22.27
2022-11-16T00:29:07.050Z,22.50
2022-11-16T00:29:29.895Z,21.77
2022-11-16T00:29:52.630Z,21.98
2022-11-16T00:30:16.394Z,21.40
2022-11-16T00:30:39.277Z,21.17
2022-11-16T00:31:02.459Z,21.65
2022-11-16T00:31:25.275Z,21.20
2022-11-16T00:31:48.285Z,21.50
2022-11-16T00:32:12.460Z,21.65
2022-11-16T00:32:35.196Z,20.77
2022-11-16T00:33:00.715Z,20.63
2022-11-16T00:33:24.909Z,20.67
2022-11-16T00:33:47.651Z,21.20
2022-11-16T00:34:10.418Z,21.58
2022-11-16T00:34:33.184Z,21.45
2022-11-16T00:34:55.879Z,21.17
2022-11-16T00:35:18.564Z,20.95
2022-11-16T00:35:41.520Z,21.45
2022-11-16T00:36:05.186Z,21.83
2022-11-16T00:36:28.019Z,20.90
2022-11-16T00:36:50.845Z,20.50
2022-11-16T00:37:13.674Z,20.08
2022-11-16T00:37:36.424Z,20.50
2022-11-16T00:37:59.209Z,21.08
2022-11-16T00:38:21.960Z,20.20
2022-11-16T00:38:44.885Z,20.30
2022-11-16T00:39:11.892Z,19.67
2022-11-16T00:39:34.620Z,20.48
2022-11-16T00:39:57.373Z,21.05
2022-11-16T00:40:21.210Z,20.35
2022-11-16T00:40:44.022Z,21.03
2022-11-16T00:41:06.754Z,21.67
2022-11-16T00:41:29.445Z,20.67
2022-11-16T00:41:52.464Z,19.98
2022-11-16T00:42:15.200Z,20.45
2022-11-16T00:42:37.955Z,20.67
2022-11-16T00:43:03.104Z,20.27
2022-11-16T00:43:25.839Z,20.63
2022-11-16T00:43:48.740Z,19.98
2022-11-16T00:44:11.642Z,19.45
2022-11-16T00:44:34.360Z,19.88
2022-11-16T00:44:57.140Z,20.20
2022-11-16T00:45:19.871Z,20.30
2022-11-16T00:45:42.890Z,19.58
2022-11-16T00:46:05.959Z,20.05
2022-11-16T00:46:28.685Z,20.17
2022-11-16T00:46:51.383Z,19.65
2022-11-16T00:47:14.117Z,20.48
2022-11-16T00:47:37.096Z,21.15
2022-11-16T00:48:00.801Z,20.45
2022-11-16T00:48:25.399Z,19.90
2022-11-16T00:48:48.142Z,19.55
2022-11-16T00:49:10.917Z,19.88
2022-11-16T00:49:33.692Z,19.75
2022-11-16T00:49:56.423Z,20.20
2022-11-16T00:50:19.342Z,20.38
2022-11-16T00:50:42.047Z,19.80
2022-11-16T00:51:05.108Z,19.73
2022-11-16T00:51:27.843Z,20.48
2022-11-16T00:51:50.550Z,20.30
2022-11-16T00:52:13.308Z,20.38
2022-11-16T00:52:36.063Z,20.33
2022-11-16T00:52:58.766Z,20.38
2022-11-16T00:53:24.303Z,19.90
2022-11-16T00:53:47.027Z,19.38
2022-11-16T00:54:09.783Z,20.00
2022-11-16T00:54:33.225Z,20.35
2022-11-16T00:54:55.920Z,19.63
2022-11-16T00:55:18.620Z,19.67
2022-11-16T00:55:41.689Z,19.80
2022-11-16T00:56:04.825Z,19.55
2022-11-16T00:56:27.607Z,19.85
2022-11-16T00:56:52.707Z,20.58
2022-11-16T00:57:15.493Z,20.05
2022-11-16T00:57:38.172Z,19.13
2022-11-16T00:58:00.997Z,19.75
2022-11-16T00:58:23.765Z,19.05
2022-11-16T00:58:47.590Z,20.33
2022-11-16T00:59:10.360Z,20.60
2022-11-16T00:59:33.190Z,20.70
2022-11-16T00:59:55.951Z,19.95
2022-11-16T01:00:19.690Z,19.17
2022-11-16T01:00:42.561Z,20.13
2022-11-16T01:01:06.917Z,19.75
2022-11-16T01:01:29.855Z,19.80
2022-11-16T01:01:52.610Z,20.83
2022-11-16T01:02:15.348Z,20.27
2022-11-16T01:02:38.219Z,20.25
2022-11-16T01:03:00.996Z,20.00
2022-11-16T01:03:25.202Z,20.15
2022-11-16T01:03:48.374Z,20.35
2022-11-16T01:04:11.054Z,19.48
2022-11-16T01:04:34.390Z,20.42
2022-11-16T01:04:57.080Z,20.10
2022-11-16T01:05:22.697Z,19.20
2022-11-16T01:05:45.494Z,19.98
2022-11-16T01:06:12.849Z,19.60
2022-11-16T01:06:35.645Z,20.63
2022-11-16T01:06:58.333Z,20.10
2022-11-16T01:07:21.298Z,19.55
2022-11-16T01:07:44.075Z,19.67
2022-11-16T01:08:06.766Z,20.10
2022-11-16T01:08:29.419Z,20.67
2022-11-16T01:08:52.339Z,20.58
2022-11-16T01:09:15.085Z,19.77
2022-11-16T01:09:37.757Z,20.35
2022-11-16T01:10:00.431Z,19.67
2022-11-16T01:10:23.719Z,20.48
2022-11-16T01:10:48.885Z,20.60
2022-11-16T01:11:31.669Z,19.88
2022-11-16T01:12:09.503Z,19.33
2022-11-16T01:12:32.165Z,20.05
2022-11-16T01:12:55.266Z,19.90
2022-11-16T01:13:17.930Z,20.10
2022-11-16T01:13:40.576Z,20.23
2022-11-16T01:14:03.494Z,20.63
2022-11-16T01:14:26.160Z,20.55
2022-11-16T01:14:49.076Z,19.73
2022-11-16T01:15:11.756Z,19.42
2022-11-16T01:15:34.453Z,19.23
2022-11-16T01:15:57.145Z,20.15
2022-11-16T01:16:20.489Z,20.17
2022-11-16T01:16:43.190Z,19.58
2022-11-16T01:17:05.927Z,20.17
2022-11-16T01:17:29.737Z,20.52
2022-11-16T01:17:52.992Z,19.70
2022-11-16T01:18:15.698Z,20.05
2022-11-16T01:18:40.020Z,19.80
2022-11-16T01:19:03.053Z,19.33
2022-11-16T01:19:25.769Z,19.88
2022-11-16T01:19:48.578Z,20.55
2022-11-16T01:20:13.607Z,20.50
2022-11-16T01:20:36.326Z,20.13
2022-11-16T01:20:59.076Z,20.83
2022-11-16T01:21:22.087Z,20.92
2022-11-16T01:21:44.881Z,20.38
2022-11-16T01:22:07.626Z,19.95
2022-11-16T01:22:30.333Z,19.58
2022-11-16T01:22:53.158Z,19.15
2022-11-16T01:23:18.097Z,20.00
2022-11-16T01:23:40.864Z,20.45
2022-11-16T01:24:03.687Z,20.60
2022-11-16T01:24:26.962Z,20.63
2022-11-16T01:24:49.692Z,20.50
2022-11-16T01:25:13.332Z,20.70
2022-11-16T01:25:36.243Z,20.25
2022-11-16T01:26:02.107Z,21.05
2022-11-16T01:26:24.795Z,21.58
2022-11-16T01:26:47.527Z,20.88
2022-11-16T01:27:10.270Z,21.38
2022-11-16T01:27:33.127Z,21.77
2022-11-16T01:27:55.816Z,21.02
2022-11-16T01:28:18.478Z,20.80
2022-11-16T01:28:41.229Z,20.92
2022-11-16T01:29:03.907Z,21.05
2022-11-16T01:29:26.924Z,21.17
2022-11-16T01:29:49.642Z,20.10
2022-11-16T01:30:13.602Z,20.13
2022-11-16T01:30:38.886Z,20.13
2022-11-16T01:31:01.636Z,20.50
2022-11-16T01:31:24.327Z,19.80
2022-11-16T01:31:47.063Z,19.88
2022-11-16T01:32:09.715Z,19.50
2022-11-16T01:32:32.354Z,20.35
2022-11-16T01:32:55.119Z,19.80
2022-11-16T01:33:18.975Z,20.17
2022-11-16T01:33:43.253Z,20.33
2022-11-16T01:34:05.962Z,20.58
2022-11-16T01:34:28.717Z,20.45
2022-11-16T01:34:51.513Z,21.13
2022-11-16T01:35:16.459Z,20.95
2022-11-16T01:35:39.183Z,20.90
2022-11-16T01:36:01.935Z,21.35
2022-11-16T01:36:24.727Z,21.23
2022-11-16T01:36:47.582Z,21.17
2022-11-16T01:37:10.343Z,20.58
2022-11-16T01:37:33.138Z,21.17
2022-11-16T01:37:55.902Z,21.55
2022-11-16T01:38:18.582Z,20.67
2022-11-16T01:38:42.728Z,20.35
2022-11-16T01:39:05.476Z,21.48
2022-11-16T01:39:28.245Z,22.13
2022-11-16T01:39:51.996Z,21.98
2022-11-16T01:40:15.057Z,21.02
2022-11-16T01:40:37.812Z,22.05
2022-11-16T01:41:00.572Z,21.05
2022-11-16T01:41:24.492Z,20.35
2022-11-16T01:41:48.328Z,21.00
2022-11-16T01:42:15.692Z,20.63
2022-11-16T01:42:38.628Z,21.42
2022-11-16T01:43:01.345Z,21.27
2022-11-16T01:43:25.167Z,20.95
2022-11-16T01:43:53.423Z,21.23
2022-11-16T01:44:55.122Z,21.00
2022-11-16T01:45:22.247Z,21.52
2022-11-16T01:45:44.976Z,21.85
2022-11-16T01:46:07.758Z,21.23
2022-11-16T01:46:30.562Z,21.75
2022-11-16T01:46:53.287Z,21.80
2022-11-16T01:47:16.853Z,21.50
2022-11-16T01:47:39.567Z,21.60
2022-11-16T01:48:02.386Z,21.08
2022-11-16T01:48:26.109Z,22.17
2022-11-16T01:48:53.147Z,21.92
2022-11-16T01:49:18.717Z,21.67
2022-11-16T01:49:42.417Z,20.55
2022-11-16T01:50:10.062Z,21.05
2022-11-16T01:50:32.810Z,21.02
2022-11-16T01:50:55.537Z,21.10
2022-11-16T01:51:18.266Z,21.27
2022-11-16T01:51:42.147Z,21.40
2022-11-16T01:52:06.461Z,21.05
2022-11-16T01:52:31.569Z,20.10
2022-11-16T01:52:55.676Z,20.23
2022-11-16T01:53:18.411Z,21.23
2022-11-16T01:53:41.233Z,20.23
2022-11-16T01:54:06.398Z,20.48
2022-11-16T01:54:29.266Z,20.80
2022-11-16T01:54:52.827Z,21.75
2022-11-16T01:55:15.655Z,21.65
2022-11-16T01:55:39.397Z,20.95
2022-11-16T01:56:02.199Z,20.88
2022-11-16T01:56:24.913Z,21.77
2022-11-16T01:56:48.091Z,21.00
2022-11-16T01:57:13.408Z,20.60
2022-11-16T01:57:40.143Z,20.85
2022-11-16T01:58:02.964Z,20.98
2022-11-16T01:58:25.778Z,20.67
2022-11-16T01:58:48.534Z,20.42
2022-11-16T01:59:11.496Z,20.70
2022-11-16T01:59:34.232Z,20.67
2022-11-16T01:59:58.404Z,20.20
2022-11-16T02:00:21.147Z,21.35
2022-11-16T02:00:43.956Z,20.92
2022-11-16T02:01:06.969Z,21.13
2022-11-16T02:01:29.847Z,21.25
2022-11-16T02:01:52.685Z,21.10
2022-11-16T02:02:15.456Z,20.80
2022-11-16T02:02:38.209Z,21.80
2022-11-16T02:03:01.274Z,20.95
2022-11-16T02:03:25.495Z,21.10
2022-11-16T02:03:49.948Z,20.50
2022-11-16T02:04:12.911Z,20.63
2022-11-16T02:04:35.630Z,20.98
2022-11-16T02:04:58.280Z,21.23
2022-11-16T02:05:21.626Z,21.58
2022-11-16T02:05:56.486Z,21.77
2022-11-16T02:06:29.131Z,20.70
2022-11-16T02:06:58.253Z,21.45
2022-11-16T02:07:27.470Z,21.20
2022-11-16T02:08:16.795Z,22.08
2022-11-16T02:09:06.035Z,21.52
2022-11-16T02:09:57.300Z,21.55
2022-11-16T02:10:25.461Z,21.52
2022-11-16T02:10:57.946Z,21.02
2022-11-16T02:11:32.695Z,21.40
2022-11-16T02:12:08.793Z,21.30
2022-11-16T02:12:49.281Z,21.33
2022-11-16T02:13:24.158Z,21.75
2022-11-16T02:13:51.696Z,21.42
2022-11-16T02:14:20.537Z,21.55
2022-11-16T02:15:02.147Z,21.60
2022-11-16T02:15:27.375Z,21.38
2022-11-16T02:15:52.288Z,21.20
2022-11-16T02:16:22.383Z,21.25
2022-11-16T02:16:51.049Z,21.17
2022-11-16T02:17:18.727Z,21.50
2022-11-16T02:17:46.572Z,20.77
2022-11-16T02:18:16.676Z,21.33
2022-11-16T02:18:45.769Z,20.25
2022-11-16T02:19:28.370Z,20.52
2022-11-16T02:20:09.828Z,21.40
2022-11-16T02:20:47.364Z,20.98
2022-11-16T02:21:27.377Z,21.08
2022-11-16T02:21:52.401Z,20.92
2022-11-16T02:22:19.208Z,21.35
2022-11-16T02:22:53.158Z,21.23
2022-11-16T02:23:49.540Z,22.05
2022-11-16T02:24:35.609Z,21.33
2022-11-16T02:25:00.529Z,21.88
2022-11-16T02:25:26.744Z,22.20
2022-11-16T02:25:53.681Z,23.02
2022-11-16T02:26:47.059Z,22.25
2022-11-16T02:27:33.989Z,22.80
2022-11-16T02:28:21.124Z,22.15
2022-11-16T02:28:48.980Z,22.83
2022-11-16T02:29:17.101Z,23.23
2022-11-16T02:29:41.708Z,21.95
2022-11-16T02:30:04.875Z,21.73
2022-11-16T02:30:27.679Z,21.42
2022-11-16T02:30:51.065Z,22.98
2022-11-16T02:31:15.860Z,22.30
2022-11-16T02:31:40.879Z,22.20
2022-11-16T02:32:08.483Z,23.08
2022-11-16T02:32:34.329Z,21.58
2022-11-16T02:32:59.735Z,22.38
2022-11-16T02:33:23.837Z,22.98
2022-11-16T02:33:46.897Z,22.60
2022-11-16T02:34:11.560Z,21.83
2022-11-16T02:34:37.104Z,22.55
2022-11-16T02:35:03.502Z,21.98
2022-11-16T02:35:27.688Z,22.00
2022-11-16T02:35:51.039Z,22.67
2022-11-16T02:36:15.683Z,22.60
2022-11-16T02:36:38.849Z,22.45
2022-11-16T02:37:03.995Z,23.00
2022-11-16T02:37:26.740Z,22.55
2022-11-16T02:37:55.366Z,22.88
2022-11-16T02:38:19.594Z,21.98
2022-11-16T02:38:44.809Z,21.95
2022-11-16T02:39:10.079Z,22.50
2022-11-16T02:39:32.805Z,22.95
2022-11-16T02:39:57.854Z,22.13
2022-11-16T02:40:21.158Z,22.75
2022-11-16T02:40:46.880Z,22.33
2022-11-16T02:41:10.738Z,22.80
2022-11-16T02:41:34.062Z,22.33
2022-11-16T02:41:57.119Z,22.55
2022-11-16T02:42:22.749Z,22.02
2022-11-16T02:42:47.350Z,22.50
2022-11-16T02:43:11.366Z,22.92
2022-11-16T02:43:36.472Z,22.80
2022-11-16T02:44:01.851Z,22.63
2022-11-16T02:44:27.651Z,22.45
2022-11-16T02:44:51.186Z,22.67
2022-11-16T02:45:17.475Z,22.73
2022-11-16T02:45:43.053Z,22.92
2022-11-16T02:46:08.661Z,22.35
2022-11-16T02:46:35.859Z,21.50
2022-11-16T02:46:59.934Z,22.70
2022-11-16T02:47:25.137Z,22.83
2022-11-16T02:47:48.086Z,23.05
2022-11-16T02:48:13.451Z,22.80
2022-11-16T02:48:38.251Z,23.00
2022-11-16T02:49:02.732Z,23.15
2022-11-16T02:49:25.516Z,23.77
2022-11-16T02:49:50.500Z,23.38
2022-11-16T02:50:15.685Z,23.52
2022-11-16T02:50:38.489Z,24.13
2022-11-16T02:51:01.254Z,23.67
2022-11-16T02:51:24.032Z,23.83
2022-11-16T02:51:46.926Z,24.13
2022-11-16T02:52:09.770Z,24.23
2022-11-16T02:52:32.541Z,23.88
2022-11-16T02:52:55.856Z,23.42
2022-11-16T02:53:18.757Z,23.40
2022-11-16T02:53:43.356Z,23.73
2022-11-16T02:54:13.041Z,22.15
2022-11-16T02:54:36.109Z,23.17
2022-11-16T02:54:58.808Z,23.13
2022-11-16T02:55:21.513Z,23.23
2022-11-16T02:55:44.240Z,23.58
2022-11-16T02:56:09.676Z,23.98
2022-11-16T02:56:41.944Z,23.70
2022-11-16T02:57:38.475Z,22.70
2022-11-16T02:58:01.678Z,21.15
2022-11-16T02:58:24.660Z,19.70
2022-11-16T02:58:47.787Z,19.95
2022-11-16T02:59:13.082Z,20.33
2022-11-16T02:59:43.045Z,19.95
2022-11-16T03:00:07.464Z,20.25
2022-11-16T03:00:31.393Z,19.67
2022-11-16T03:00:55.873Z,20.70
2022-11-16T03:01:19.720Z,20.50
2022-11-16T03:01:45.931Z,20.30
2022-11-16T03:02:14.159Z,20.25
2022-11-16T03:02:41.690Z,20.20
2022-11-16T03:03:09.134Z,19.75
2022-11-16T03:03:34.089Z,20.30
2022-11-16T03:03:59.019Z,20.08
2022-11-16T03:04:24.076Z,20.50
2022-11-16T03:04:48.940Z,20.70
2022-11-16T03:05:13.604Z,19.92
2022-11-16T03:05:38.734Z,19.70
2022-11-16T03:06:02.794Z,20.85
2022-11-16T03:06:26.868Z,21.17
2022-11-16T03:06:49.642Z,20.52
2022-11-16T03:07:13.952Z,20.20
2022-11-16T03:07:39.696Z,20.25
2022-11-16T03:08:11.954Z,19.85
2022-11-16T03:08:36.675Z,20.75
2022-11-16T03:09:02.094Z,20.60
2022-11-16T03:09:27.116Z,20.17
2022-11-16T03:09:49.814Z,20.50
2022-11-16T03:10:32.559Z,20.27
2022-11-16T03:11:15.708Z,19.30
2022-11-16T03:11:58.089Z,19.90
2022-11-16T03:12:22.483Z,19.50
2022-11-16T03:12:45.193Z,19.65
2022-11-16T03:13:08.338Z,19.75
2022-11-16T03:13:32.534Z,20.45
2022-11-16T03:13:55.622Z,20.13
2022-11-16T03:14:20.610Z,20.08
2022-11-16T03:14:47.853Z,20.35
2022-11-16T03:15:11.379Z,19.90
2022-11-16T03:15:34.885Z,19.35
2022-11-16T03:15:57.624Z,20.00
2022-11-16T03:16:24.721Z,20.25
2022-11-16T03:16:48.944Z,20.17
2022-11-16T03:17:13.728Z,19.60
2022-11-16T03:17:39.247Z,19.98
2022-11-16T03:18:01.924Z,20.63
2022-11-16T03:18:27.482Z,20.40
2022-11-16T03:18:50.424Z,20.45
2022-11-16T03:19:13.906Z,20.60
2022-11-16T03:19:40.144Z,20.17
2022-11-16T03:20:05.442Z,19.63
2022-11-16T03:20:28.387Z,20.85
2022-11-16T03:20:56.622Z,20.95
2022-11-16T03:21:24.896Z,20.48
2022-11-16T03:21:48.664Z,20.55
2022-11-16T03:22:14.547Z,20.23
2022-11-16T03:22:39.192Z,20.05
2022-11-16T03:23:02.545Z,21.08
2022-11-16T03:23:25.934Z,20.88
2022-11-16T03:23:48.644Z,19.90
2022-11-16T03:24:11.359Z,20.45
2022-11-16T03:24:34.104Z,20.52
2022-11-16T03:24:56.857Z,20.65
2022-11-16T03:25:20.964Z,20.75
2022-11-16T03:25:46.354Z,20.48
2022-11-16T03:26:09.214Z,20.17
2022-11-16T03:26:34.104Z,20.50
2022-11-16T03:27:00.493Z,21.05
2022-11-16T03:27:29.301Z,20.95
2022-11-16T03:27:54.569Z,20.60
2022-11-16T03:28:20.299Z,20.55
2022-11-16T03:28:47.169Z,20.60
2022-11-16T03:29:14.256Z,21.05
2022-11-16T03:29:41.600Z,20.70
2022-11-16T03:30:07.349Z,20.25
2022-11-16T03:30:31.367Z,20.25
2022-11-16T03:30:56.014Z,20.33
2022-11-16T03:31:20.806Z,21.48
2022-11-16T03:31:46.411Z,21.25
2022-11-16T03:32:13.339Z,21.02
2022-11-16T03:32:39.364Z,20.60
2022-11-16T03:33:03.873Z,20.90
2022-11-16T03:33:27.656Z,20.60
2022-11-16T03:33:52.190Z,20.25
2022-11-16T03:34:16.954Z,20.13
2022-11-16T03:34:39.631Z,20.67
2022-11-16T03:35:04.661Z,20.65
2022-11-16T03:35:28.324Z,20.85
2022-11-16T03:35:54.889Z,20.33
2022-11-16T03:36:20.166Z,20.60
2022-11-16T03:36:43.509Z,21.20
2022-11-16T03:37:06.339Z,20.58
2022-11-16T03:37:29.120Z,20.23
2022-11-16T03:37:53.285Z,20.00
2022-11-16T03:38:16.091Z,20.25
2022-11-16T03:38:39.658Z,20.33
2022-11-16T03:39:03.482Z,20.33
2022-11-16T03:39:28.651Z,20.02
2022-11-16T03:39:51.420Z,19.98
2022-11-16T03:40:14.169Z,19.60
2022-11-16T03:40:36.892Z,20.85
2022-11-16T03:41:01.169Z,21.17
2022-11-16T03:41:24.001Z,20.45
2022-11-16T03:41:46.674Z,19.95
2022-11-16T03:42:11.574Z,19.88
2022-11-16T03:42:34.185Z,20.13
2022-11-16T03:42:56.815Z,20.17
2022-11-16T03:43:20.500Z,20.30
2022-11-16T03:43:46.009Z,19.98
2022-11-16T03:44:09.114Z,20.63
2022-11-16T03:44:31.774Z,20.52
2022-11-16T03:44:57.734Z,20.48
2022-11-16T03:45:21.935Z,20.30
2022-11-16T03:45:44.639Z,20.63
2022-11-16T03:46:07.525Z,20.35
2022-11-16T03:46:30.219Z,19.80
2022-11-16T03:46:52.845Z,20.35
2022-11-16T03:47:15.453Z,20.67
2022-11-16T03:47:38.129Z,20.80
2022-11-16T03:48:01.169Z,20.10
2022-11-16T03:48:23.891Z,20.20
2022-11-16T03:48:46.654Z,20.20
2022-11-16T03:49:09.389Z,20.80
2022-11-16T03:49:32.118Z,20.40
2022-11-16T03:49:54.779Z,20.67
2022-11-16T03:50:17.444Z,20.85
2022-11-16T03:50:40.165Z,20.27
2022-11-16T03:51:03.135Z,20.65
2022-11-16T03:51:25.919Z,21.25
2022-11-16T03:51:49.042Z,20.95
2022-11-16T03:52:11.940Z,20.33
2022-11-16T03:52:37.619Z,20.60
2022-11-16T03:53:00.279Z,20.60
2022-11-16T03:53:22.939Z,20.45
2022-11-16T03:53:45.593Z,20.33
2022-11-16T03:54:08.340Z,20.13
2022-11-16T03:54:30.984Z,21.02
2022-11-16T03:54:53.823Z,20.67
2022-11-16T03:55:16.771Z,21.20
2022-11-16T03:55:39.599Z,20.80
2022-11-16T03:56:02.314Z,20.38
2022-11-16T03:56:25.317Z,20.13
2022-11-16T03:56:49.255Z,20.63
2022-11-16T03:57:18.320Z,20.88
2022-11-16T03:57:40.990Z,20.33
2022-11-16T03:58:03.716Z,20.52
2022-11-16T03:58:27.403Z,20.60
2022-11-16T03:58:50.156Z,20.13
2022-11-16T03:59:12.861Z,20.17
2022-11-16T03:59:35.570Z,20.60
2022-11-16T03:59:58.301Z,20.35
2022-11-16T04:00:22.510Z,20.63
2022-11-16T04:00:45.307Z,21.10
2022-11-16T04:01:08.113Z,20.88
2022-11-16T04:01:31.131Z,20.88
2022-11-16T04:01:53.978Z,21.10
2022-11-16T04:02:16.797Z,21.05
2022-11-16T04:02:39.522Z,20.52
2022-11-16T04:03:02.232Z,20.70
2022-11-16T04:03:25.046Z,20.65
2022-11-16T04:03:47.987Z,21.15
2022-11-16T04:04:31.013Z,21.35
2022-11-16T04:05:12.338Z,20.70
2022-11-16T04:05:53.766Z,20.50
2022-11-16T04:06:35.252Z,20.70
2022-11-16T04:07:24.560Z,20.30
2022-11-16T04:08:06.952Z,20.98
2022-11-16T04:08:48.206Z,20.60
2022-11-16T04:09:29.691Z,20.77
2022-11-16T04:10:11.417Z,20.95
2022-11-16T04:10:52.837Z,20.60
2022-11-16T04:11:34.522Z,20.73
2022-11-16T04:12:16.028Z,20.95
2022-11-16T04:13:02.633Z,20.98
2022-11-16T04:13:45.396Z,20.75
2022-11-16T04:14:31.198Z,20.95
2022-11-16T04:15:12.787Z,21.45
2022-11-16T04:15:58.047Z,21.83
2022-11-16T04:16:39.172Z,21.67
2022-11-16T04:17:20.441Z,20.98
2022-11-16T04:18:01.968Z,20.77
2022-11-16T04:18:43.367Z,21.17
2022-11-16T04:19:24.967Z,21.20
2022-11-16T04:20:06.712Z,21.52
2022-11-16T04:20:48.247Z,20.92
2022-11-16T04:21:33.429Z,21.58
2022-11-16T04:22:15.192Z,21.33
2022-11-16T04:23:02.603Z,20.55
2022-11-16T04:23:43.833Z,21.20
2022-11-16T04:24:14.706Z,20.98
2022-11-16T04:24:38.469Z,20.83
2022-11-16T04:25:04.091Z,21.52
2022-11-16T04:25:28.497Z,22.08
2022-11-16T04:25:51.277Z,21.40
2022-11-16T04:26:13.967Z,20.48
2022-11-16T04:27:08.664Z,20.92
2022-11-16T04:27:49.942Z,20.50
2022-11-16T04:28:16.613Z,20.58
2022-11-16T04:28:39.550Z,21.17
2022-11-16T04:29:02.326Z,21.48
2022-11-16T04:29:26.213Z,21.08
2022-11-16T04:29:48.926Z,20.92
2022-11-16T04:30:12.685Z,20.58
2022-11-16T04:30:55.176Z,20.10
2022-11-16T04:31:38.091Z,20.52
2022-11-16T04:32:19.967Z,21.05
2022-11-16T04:33:01.305Z,20.00
2022-11-16T04:33:42.586Z,21.40
2022-11-16T04:34:24.271Z,20.77
2022-11-16T04:35:05.823Z,21.42
2022-11-16T04:35:58.000Z,21.92
2022-11-16T04:36:39.525Z,20.63
2022-11-16T04:37:23.372Z,20.83
2022-11-16T04:37:49.039Z,21.30
2022-11-16T04:38:11.786Z,21.50
2022-11-16T04:38:34.945Z,21.30
2022-11-16T04:38:57.917Z,21.45
2022-11-16T04:39:20.758Z,21.33
2022-11-16T04:39:46.731Z,20.75
2022-11-16T04:40:11.626Z,21.25
2022-11-16T04:40:34.417Z,21.67
2022-11-16T04:40:57.136Z,21.83
2022-11-16T04:41:38.478Z,21.75
2022-11-16T04:42:16.464Z,22.10
2022-11-16T04:42:39.233Z,22.63
2022-11-16T04:43:03.554Z,22.63
2022-11-16T04:43:26.305Z,22.05
2022-11-16T04:43:51.951Z,21.95
2022-11-16T04:44:14.752Z,21.58
2022-11-16T04:44:56.111Z,20.80
2022-11-16T04:45:37.951Z,21.23
2022-11-16T04:46:22.052Z,21.30
2022-11-16T04:47:05.083Z,22.65
2022-11-16T04:47:28.122Z,21.80
2022-11-16T04:47:51.073Z,22.00
2022-11-16T04:48:14.411Z,21.38
2022-11-16T04:48:37.342Z,21.38
2022-11-16T04:49:00.436Z,22.27
2022-11-16T04:49:23.082Z,22.35
2022-11-16T04:49:45.806Z,22.05
2022-11-16T04:50:08.909Z,22.55
2022-11-16T04:50:31.671Z,21.80
2022-11-16T04:50:54.466Z,21.73
2022-11-16T04:51:17.207Z,21.95
2022-11-16T04:51:39.978Z,21.63
2022-11-16T04:52:02.806Z,21.88
2022-11-16T04:52:25.711Z,21.13
2022-11-16T04:52:51.496Z,21.27
2022-11-16T04:53:14.157Z,21.33
2022-11-16T04:53:36.951Z,22.05
2022-11-16T04:53:59.682Z,21.70
2022-11-16T04:54:22.408Z,21.88
2022-11-16T04:54:45.246Z,22.45
2022-11-16T04:55:09.126Z,21.30
2022-11-16T04:55:31.877Z,21.02
2022-11-16T04:56:00.503Z,21.27
2022-11-16T04:56:23.667Z,20.75
2022-11-16T04:56:46.556Z,20.75
2022-11-16T04:57:09.242Z,21.05
2022-11-16T04:57:34.547Z,20.95
2022-11-16T04:57:57.282Z,21.55
2022-11-16T04:58:20.028Z,20.45
2022-11-16T04:58:42.759Z,20.77
2022-11-16T04:59:05.527Z,20.83
2022-11-16T04:59:28.316Z,21.40
2022-11-16T04:59:50.960Z,21.05
2022-11-16T05:00:14.576Z,21.40
2022-11-16T05:00:37.307Z,21.48
2022-11-16T05:01:00.710Z,21.10
2022-11-16T05:01:43.548Z,21.83
2022-11-16T05:02:10.732Z,21.30
2022-11-16T05:02:33.442Z,21.95
2022-11-16T05:03:00.957Z,21.95
2022-11-16T05:03:24.423Z,21.80
2022-11-16T05:03:47.175Z,21.73
2022-11-16T05:04:10.046Z,22.58
2022-11-16T05:04:32.792Z,22.13
2022-11-16T05:04:55.613Z,22.13
2022-11-16T05:05:18.423Z,21.90
2022-11-16T05:05:41.220Z,22.88
2022-11-16T05:06:04.347Z,21.45
2022-11-16T05:06:27.058Z,21.38
2022-11-16T05:06:52.334Z,21.83
2022-11-16T05:07:15.184Z,21.58
2022-11-16T05:07:38.054Z,21.75
2022-11-16T05:08:00.933Z,21.55
2022-11-16T05:08:25.788Z,21.17
2022-11-16T05:08:48.497Z,21.92
2022-11-16T05:09:11.217Z,22.05
2022-11-16T05:09:33.927Z,21.42
2022-11-16T05:09:56.704Z,21.65
2022-11-16T05:10:19.528Z,21.55
2022-11-16T05:10:44.502Z,21.48
2022-11-16T05:11:07.326Z,20.63
2022-11-16T05:11:30.087Z,22.08
2022-11-16T05:11:52.860Z,21.58
2022-11-16T05:12:16.667Z,21.95
2022-11-16T05:12:39.457Z,20.73
2022-11-16T05:13:02.163Z,20.90
2022-11-16T05:13:24.938Z,21.67
2022-11-16T05:13:47.622Z,21.25
2022-11-16T05:14:10.407Z,21.90
2022-11-16T05:14:35.699Z,22.05
2022-11-16T05:14:58.482Z,20.50
2022-11-16T05:15:21.277Z,20.90
2022-11-16T05:15:45.632Z,21.50
2022-11-16T05:16:09.113Z,21.20
2022-11-16T05:16:31.838Z,21.63
2022-11-16T05:16:56.717Z,20.88
2022-11-16T05:17:20.967Z,20.40
2022-11-16T05:17:43.687Z,21.58
2022-11-16T05:18:08.827Z,21.52
2022-11-16T05:18:31.976Z,20.60
2022-11-16T05:19:13.497Z,21.45
2022-11-16T05:19:54.787Z,21.75
2022-11-16T05:20:36.222Z,21.40
2022-11-16T05:21:02.118Z,20.95
2022-11-16T05:21:24.907Z,21.77
2022-11-16T05:21:47.697Z,20.70
2022-11-16T05:22:10.507Z,21.40
2022-11-16T05:22:33.262Z,20.73
2022-11-16T05:22:56.092Z,20.00
2022-11-16T05:23:37.583Z,20.20
2022-11-16T05:24:19.088Z,20.52
2022-11-16T05:24:41.898Z,21.38
2022-11-16T05:25:05.038Z,20.80
2022-11-16T05:25:30.302Z,20.83
2022-11-16T05:25:56.742Z,20.33
2022-11-16T05:26:19.427Z,20.83
2022-11-16T05:26:42.122Z,20.23
2022-11-16T05:27:06.348Z,20.45
2022-11-16T05:27:29.950Z,20.23
2022-11-16T05:27:52.708Z,20.85
2022-11-16T05:28:15.529Z,20.42
2022-11-16T05:28:38.261Z,21.67
2022-11-16T05:29:00.949Z,21.95
2022-11-16T05:29:23.748Z,21.55
2022-11-16T05:29:46.743Z,22.05
2022-11-16T05:30:11.744Z,22.10
2022-11-16T05:30:34.445Z,21.60
2022-11-16T05:30:57.188Z,21.08
2022-11-16T05:31:19.905Z,21.75
2022-11-16T05:31:42.567Z,21.50
2022-11-16T05:32:06.066Z,21.33